Aérodrome :
LOGIN :

S'inscrire | Disclaimer

   EN    FR    IT 

 










Légende :    VFR   VFR Marginal   IFR   IFR Intensif   IFR Très Intensif
Visi : 
Plafond : 
>= 8 km
>= 3000ft
5 à 8 km
1000 à 3000 ft
1500m à 5 km
500 à 1000 ft
800 à 1500m
200 à 500 ft
< 800m
< 200 ft
Symboles :   Orages  Brouillard  Fortes neiges  Fortes précipitations  Vent > 20 kt
SIGMETs :   Divers  Orages  Givrage  Turbulence  Onde Orograph.  Cendres Volcan.







- Altitude de l'aérodrome : 194 ft
- Code IATA : ANE
- Voir les cartes d'approche


LFJR - Angers Marcé

DERNIER METAR :
  • 160730Z AUTO 07005KT 0650 R26/0800N FG VV/// 09/09 Q1023 BECMG 3000 BR OVC004

METARs EXPIRÉS :
  • 160700Z AUTO 09005KT 0750 R26/0900D FG VV/// 09/09 Q1023 BECMG 3000 BR OVC004
  • 160630Z AUTO 05005KT 0650 R26/0800N FG VV/// 09/09 Q1022 BECMG 3000 BR OVC004
  • 160600Z AUTO 07004KT 030V100 0750 0700 R26/0800D FG VV/// 10/10 Q1022 NOSIG
  • 160530Z AUTO 09005KT 0800 0750 R26/0900D FG VV/// 10/10 Q1022
  • 160500Z AUTO 07006KT 0750 R26/0900N FG VV/// 10/10 Q1022

TAF TAF LFJR
Valide du 16 à 06h jusqu'au 16 à 15h UTC


160500Z 1606/1615 VRB03KT 0600 FG VV///
BECMG 1608/1610 3000 BR OVC004
BECMG 1610/1612 9999 NSW OVC008
TEMPO 1612/1615 OVC012
Pas de NOTAMs connus pour ce terrain.



MET'MAP, la Météo Aéronautique d'un coup d'oeil ! - Copyright ORBIFLY Décembre 2007 - Disclaimer

ORBIFLY MET'MAP TEAM :

Programmation & Développement : Alexandra Zaïnal
Conception & Développement : Baudouin d'Aumeries
Co-Programmation & Développement : Marc-Olivier Méhu
Soutien technique & logistique : Manuel Goepfert

Contact : metmap@orbifly.com




SOURCES & CREDITS :

   NOAA